sensor_id;sensor_type;location;lat;lon;timestamp;temperature;humidity
27940;DHT22;15275;51.716;14.324;2023-05-02T00:00:44;16.50;63.90
27940;DHT22;15275;51.716;14.324;2023-05-02T00:03:10;16.50;63.70
27940;DHT22;15275;51.716;14.324;2023-05-02T00:05:37;16.50;63.70
27940;DHT22;15275;51.716;14.324;2023-05-02T00:08:03;16.60;63.80
27940;DHT22;15275;51.716;14.324;2023-05-02T00:10:29;16.60;63.90
27940;DHT22;15275;51.716;14.324;2023-05-02T00:12:55;16.60;64.10
27940;DHT22;15275;51.716;14.324;2023-05-02T00:15:21;16.60;64.20
27940;DHT22;15275;51.716;14.324;2023-05-02T00:17:47;16.60;64.40
27940;DHT22;15275;51.716;14.324;2023-05-02T00:20:13;16.60;64.50
27940;DHT22;15275;51.716;14.324;2023-05-02T00:22:39;16.60;64.30
27940;DHT22;15275;51.716;14.324;2023-05-02T00:25:05;16.60;64.40
27940;DHT22;15275;51.716;14.324;2023-05-02T00:27:31;16.60;64.60
27940;DHT22;15275;51.716;14.324;2023-05-02T00:29:58;16.60;64.30
27940;DHT22;15275;51.716;14.324;2023-05-02T00:32:25;16.60;64.30
27940;DHT22;15275;51.716;14.324;2023-05-02T00:34:51;16.50;64.40
27940;DHT22;15275;51.716;14.324;2023-05-02T00:37:17;16.50;64.50
27940;DHT22;15275;51.716;14.324;2023-05-02T00:39:44;16.50;64.50
27940;DHT22;15275;51.716;14.324;2023-05-02T00:42:10;16.40;64.70
27940;DHT22;15275;51.716;14.324;2023-05-02T00:44:36;16.50;64.70
27940;DHT22;15275;51.716;14.324;2023-05-02T00:47:02;16.40;64.70
27940;DHT22;15275;51.716;14.324;2023-05-02T00:49:28;16.40;64.70
27940;DHT22;15275;51.716;14.324;2023-05-02T00:51:55;16.40;64.90
27940;DHT22;15275;51.716;14.324;2023-05-02T00:54:22;16.40;64.90
27940;DHT22;15275;51.716;14.324;2023-05-02T00:56:48;16.40;64.90
27940;DHT22;15275;51.716;14.324;2023-05-02T00:59:15;16.40;65.10
27940;DHT22;15275;51.716;14.324;2023-05-02T01:01:49;16.40;65.10
27940;DHT22;15275;51.716;14.324;2023-05-02T01:13:13;16.30;65.70
27940;DHT22;15275;51.716;14.324;2023-05-02T01:15:44;16.30;65.20
27940;DHT22;15275;51.716;14.324;2023-05-02T01:18:13;16.30;65.00
27940;DHT22;15275;51.716;14.324;2023-05-02T01:20:43;16.20;65.10
27940;DHT22;15275;51.716;14.324;2023-05-02T01:29:06;16.20;65.90
27940;DHT22;15275;51.716;14.324;2023-05-02T01:31:38;16.20;65.50
27940;DHT22;15275;51.716;14.324;2023-05-02T01:34:10;16.20;65.80
27940;DHT22;15275;51.716;14.324;2023-05-02T01:36:38;16.20;65.50
27940;DHT22;15275;51.716;14.324;2023-05-02T01:39:09;16.20;65.70
27940;DHT22;15275;51.716;14.324;2023-05-02T01:41:36;16.10;65.70
27940;DHT22;15275;51.716;14.324;2023-05-02T01:44:03;16.10;65.70
27940;DHT22;15275;51.716;14.324;2023-05-02T01:46:35;16.10;65.80
27940;DHT22;15275;51.716;14.324;2023-05-02T01:49:05;16.10;66.20
27940;DHT22;15275;51.716;14.324;2023-05-02T01:51:34;16.10;65.80
27940;DHT22;15275;51.716;14.324;2023-05-02T01:54:04;16.10;65.70
27940;DHT22;15275;51.716;14.324;2023-05-02T01:56:34;16.00;65.70
27940;DHT22;15275;51.716;14.324;2023-05-02T01:59:07;16.00;65.70
27940;DHT22;15275;51.716;14.324;2023-05-02T02:01:35;16.00;66.00
27940;DHT22;15275;51.716;14.324;2023-05-02T02:04:03;16.00;65.60
27940;DHT22;15275;51.716;14.324;2023-05-02T02:06:31;16.00;65.10
27940;DHT22;15275;51.716;14.324;2023-05-02T02:08:57;16.00;65.20
27940;DHT22;15275;51.716;14.324;2023-05-02T02:11:36;15.90;65.30
27940;DHT22;15275;51.716;14.324;2023-05-02T02:14:20;15.90;66.00
27940;DHT22;15275;51.716;14.324;2023-05-02T02:16:54;15.90;65.60
27940;DHT22;15275;51.716;14.324;2023-05-02T02:19:22;15.80;65.30
27940;DHT22;15275;51.716;14.324;2023-05-02T02:21:50;15.80;65.20
27940;DHT22;15275;51.716;14.324;2023-05-02T02:24:17;15.80;65.20
27940;DHT22;15275;51.716;14.324;2023-05-02T02:26:45;15.80;65.10
27940;DHT22;15275;51.716;14.324;2023-05-02T02:29:11;15.80;65.10
27940;DHT22;15275;51.716;14.324;2023-05-02T02:31:37;15.80;65.20
27940;DHT22;15275;51.716;14.324;2023-05-02T02:34:04;15.80;65.10
27940;DHT22;15275;51.716;14.324;2023-05-02T02:40:08;15.80;65.60
27940;DHT22;15275;51.716;14.324;2023-05-02T02:42:41;15.70;65.70
27940;DHT22;15275;51.716;14.324;2023-05-02T02:45:37;15.70;65.60
27940;DHT22;15275;51.716;14.324;2023-05-02T02:48:18;15.70;65.90
27940;DHT22;15275;51.716;14.324;2023-05-02T02:56:41;15.70;65.60
27940;DHT22;15275;51.716;14.324;2023-05-02T02:59:25;15.70;66.00
27940;DHT22;15275;51.716;14.324;2023-05-02T03:02:04;15.60;65.30
27940;DHT22;15275;51.716;14.324;2023-05-02T03:04:35;15.60;65.90
27940;DHT22;15275;51.716;14.324;2023-05-02T03:07:03;15.60;65.40
27940;DHT22;15275;51.716;14.324;2023-05-02T03:09:45;15.60;65.40
27940;DHT22;15275;51.716;14.324;2023-05-02T03:12:12;15.60;66.20
27940;DHT22;15275;51.716;14.324;2023-05-02T03:14:39;15.60;65.50
27940;DHT22;15275;51.716;14.324;2023-05-02T03:17:06;15.60;65.70
27940;DHT22;15275;51.716;14.324;2023-05-02T03:19:33;15.60;65.70
27940;DHT22;15275;51.716;14.324;2023-05-02T03:21:59;15.50;65.70
27940;DHT22;15275;51.716;14.324;2023-05-02T03:24:25;15.50;65.80
27940;DHT22;15275;51.716;14.324;2023-05-02T03:26:57;15.50;66.00
27940;DHT22;15275;51.716;14.324;2023-05-02T03:29:24;15.50;66.20
27940;DHT22;15275;51.716;14.324;2023-05-02T03:31:51;15.50;66.00
27940;DHT22;15275;51.716;14.324;2023-05-02T03:34:16;15.40;66.00
27940;DHT22;15275;51.716;14.324;2023-05-02T03:36:44;15.40;66.10
27940;DHT22;15275;51.716;14.324;2023-05-02T03:39:09;15.40;66.10
27940;DHT22;15275;51.716;14.324;2023-05-02T03:41:36;15.40;66.20
27940;DHT22;15275;51.716;14.324;2023-05-02T03:44:02;15.40;66.20
27940;DHT22;15275;51.716;14.324;2023-05-02T03:46:29;15.30;66.30
27940;DHT22;15275;51.716;14.324;2023-05-02T03:48:57;15.30;66.30
27940;DHT22;15275;51.716;14.324;2023-05-02T03:51:22;15.30;66.40
27940;DHT22;15275;51.716;14.324;2023-05-02T03:53:48;15.20;66.40
27940;DHT22;15275;51.716;14.324;2023-05-02T03:56:18;15.20;66.40
27940;DHT22;15275;51.716;14.324;2023-05-02T03:58:44;15.20;66.50
27940;DHT22;15275;51.716;14.324;2023-05-02T04:01:15;15.10;66.40
27940;DHT22;15275;51.716;14.324;2023-05-02T04:03:41;15.20;66.70
27940;DHT22;15275;51.716;14.324;2023-05-02T04:06:07;15.10;66.70
27940;DHT22;15275;51.716;14.324;2023-05-02T04:08:33;15.10;66.70
27940;DHT22;15275;51.716;14.324;2023-05-02T04:10:59;15.10;66.80
27940;DHT22;15275;51.716;14.324;2023-05-02T04:13:25;15.10;66.90
27940;DHT22;15275;51.716;14.324;2023-05-02T04:15:53;15.10;67.00
27940;DHT22;15275;51.716;14.324;2023-05-02T04:18:19;15.10;67.00
27940;DHT22;15275;51.716;14.324;2023-05-02T04:20:45;15.10;67.00
27940;DHT22;15275;51.716;14.324;2023-05-02T04:23:11;15.10;67.10
27940;DHT22;15275;51.716;14.324;2023-05-02T04:25:36;15.10;67.20
27940;DHT22;15275;51.716;14.324;2023-05-02T04:28:02;15.10;67.20
27940;DHT22;15275;51.716;14.324;2023-05-02T04:30:30;15.10;67.40
27940;DHT22;15275;51.716;14.324;2023-05-02T04:32:55;15.10;67.40
27940;DHT22;15275;51.716;14.324;2023-05-02T04:35:21;15.20;67.40
27940;DHT22;15275;51.716;14.324;2023-05-02T04:37:47;15.20;67.40
27940;DHT22;15275;51.716;14.324;2023-05-02T04:40:13;15.20;67.40
27940;DHT22;15275;51.716;14.324;2023-05-02T04:42:39;15.20;67.40
27940;DHT22;15275;51.716;14.324;2023-05-02T04:45:05;15.30;67.50
27940;DHT22;15275;51.716;14.324;2023-05-02T04:47:32;15.30;67.50
27940;DHT22;15275;51.716;14.324;2023-05-02T04:49:57;15.30;67.50
27940;DHT22;15275;51.716;14.324;2023-05-02T04:52:23;15.40;67.40
27940;DHT22;15275;51.716;14.324;2023-05-02T04:54:49;15.40;67.40
27940;DHT22;15275;51.716;14.324;2023-05-02T04:57:15;15.40;67.40
27940;DHT22;15275;51.716;14.324;2023-05-02T04:59:41;15.50;67.20
27940;DHT22;15275;51.716;14.324;2023-05-02T05:02:07;15.50;67.30
27940;DHT22;15275;51.716;14.324;2023-05-02T05:04:36;15.50;67.30
27940;DHT22;15275;51.716;14.324;2023-05-02T05:07:02;15.60;67.20
27940;DHT22;15275;51.716;14.324;2023-05-02T05:09:28;15.60;67.20
27940;DHT22;15275;51.716;14.324;2023-05-02T05:11:54;15.70;67.30
27940;DHT22;15275;51.716;14.324;2023-05-02T05:14:20;15.80;67.20
27940;DHT22;15275;51.716;14.324;2023-05-02T05:16:46;15.80;66.90
27940;DHT22;15275;51.716;14.324;2023-05-02T05:19:12;16.00;66.70
27940;DHT22;15275;51.716;14.324;2023-05-02T05:21:38;16.10;66.30
27940;DHT22;15275;51.716;14.324;2023-05-02T05:24:04;16.20;66.00
27940;DHT22;15275;51.716;14.324;2023-05-02T05:26:30;16.30;65.70
27940;DHT22;15275;51.716;14.324;2023-05-02T05:28:56;16.30;65.40
27940;DHT22;15275;51.716;14.324;2023-05-02T05:31:22;16.40;65.20
27940;DHT22;15275;51.716;14.324;2023-05-02T05:33:48;16.50;64.70
27940;DHT22;15275;51.716;14.324;2023-05-02T05:36:14;16.60;64.30
27940;DHT22;15275;51.716;14.324;2023-05-02T05:38:40;16.60;64.10
27940;DHT22;15275;51.716;14.324;2023-05-02T05:41:06;16.70;63.80
27940;DHT22;15275;51.716;14.324;2023-05-02T05:43:33;16.70;63.50
27940;DHT22;15275;51.716;14.324;2023-05-02T05:45:59;16.70;63.20
27940;DHT22;15275;51.716;14.324;2023-05-02T05:48:24;16.70;62.70
27940;DHT22;15275;51.716;14.324;2023-05-02T05:50:50;16.70;62.60
27940;DHT22;15275;51.716;14.324;2023-05-02T05:53:17;16.70;62.30
27940;DHT22;15275;51.716;14.324;2023-05-02T05:55:44;16.80;62.10
27940;DHT22;15275;51.716;14.324;2023-05-02T05:58:10;16.70;61.80
27940;DHT22;15275;51.716;14.324;2023-05-02T06:00:37;16.80;61.80
27940;DHT22;15275;51.716;14.324;2023-05-02T06:03:04;16.80;61.60
27940;DHT22;15275;51.716;14.324;2023-05-02T06:05:30;16.80;61.50
27940;DHT22;15275;51.716;14.324;2023-05-02T06:07:56;16.80;61.40
27940;DHT22;15275;51.716;14.324;2023-05-02T06:10:22;16.80;61.40
27940;DHT22;15275;51.716;14.324;2023-05-02T06:12:48;16.90;61.60
27940;DHT22;15275;51.716;14.324;2023-05-02T06:15:14;17.00;61.60
27940;DHT22;15275;51.716;14.324;2023-05-02T06:17:40;17.10;61.50
27940;DHT22;15275;51.716;14.324;2023-05-02T06:20:07;17.20;61.20
27940;DHT22;15275;51.716;14.324;2023-05-02T06:22:34;17.30;60.90
27940;DHT22;15275;51.716;14.324;2023-05-02T06:25:00;17.30;60.50
27940;DHT22;15275;51.716;14.324;2023-05-02T06:27:26;17.40;60.40
27940;DHT22;15275;51.716;14.324;2023-05-02T06:29:52;17.40;60.40
27940;DHT22;15275;51.716;14.324;2023-05-02T06:32:18;17.50;60.30
27940;DHT22;15275;51.716;14.324;2023-05-02T06:34:44;17.50;60.10
27940;DHT22;15275;51.716;14.324;2023-05-02T06:37:11;17.60;60.00
27940;DHT22;15275;51.716;14.324;2023-05-02T06:39:37;17.70;60.00
27940;DHT22;15275;51.716;14.324;2023-05-02T06:42:03;17.70;59.80
27940;DHT22;15275;51.716;14.324;2023-05-02T06:44:29;17.80;59.70
27940;DHT22;15275;51.716;14.324;2023-05-02T06:46:54;17.90;59.50
27940;DHT22;15275;51.716;14.324;2023-05-02T06:49:21;18.00;59.30
27940;DHT22;15275;51.716;14.324;2023-05-02T06:51:47;18.00;59.10
27940;DHT22;15275;51.716;14.324;2023-05-02T06:54:13;18.10;59.20
27940;DHT22;15275;51.716;14.324;2023-05-02T06:56:40;18.20;58.90
27940;DHT22;15275;51.716;14.324;2023-05-02T06:59:07;18.20;58.80
27940;DHT22;15275;51.716;14.324;2023-05-02T07:01:33;18.30;59.00
27940;DHT22;15275;51.716;14.324;2023-05-02T07:04:00;18.40;59.00
27940;DHT22;15275;51.716;14.324;2023-05-02T07:06:28;18.60;59.00
27940;DHT22;15275;51.716;14.324;2023-05-02T07:08:55;18.80;58.80
27940;DHT22;15275;51.716;14.324;2023-05-02T07:11:21;18.90;58.70
27940;DHT22;15275;51.716;14.324;2023-05-02T07:13:48;19.10;58.10
27940;DHT22;15275;51.716;14.324;2023-05-02T07:16:14;19.20;57.40
27940;DHT22;15275;51.716;14.324;2023-05-02T07:18:42;19.20;57.10
27940;DHT22;15275;51.716;14.324;2023-05-02T07:21:10;19.20;57.00
27940;DHT22;15275;51.716;14.324;2023-05-02T07:23:36;19.20;57.00
27940;DHT22;15275;51.716;14.324;2023-05-02T07:26:03;19.20;56.90
27940;DHT22;15275;51.716;14.324;2023-05-02T07:28:30;19.20;56.80
27940;DHT22;15275;51.716;14.324;2023-05-02T07:30:56;19.20;56.80
27940;DHT22;15275;51.716;14.324;2023-05-02T07:33:22;19.20;56.90
27940;DHT22;15275;51.716;14.324;2023-05-02T07:35:49;19.10;57.00
27940;DHT22;15275;51.716;14.324;2023-05-02T07:38:16;19.10;57.20
27940;DHT22;15275;51.716;14.324;2023-05-02T07:40:42;19.10;57.30
27940;DHT22;15275;51.716;14.324;2023-05-02T07:43:08;19.10;57.30
27940;DHT22;15275;51.716;14.324;2023-05-02T07:45:34;19.10;57.40
27940;DHT22;15275;51.716;14.324;2023-05-02T07:48:00;19.00;57.30
27940;DHT22;15275;51.716;14.324;2023-05-02T07:50:26;19.10;57.20
27940;DHT22;15275;51.716;14.324;2023-05-02T07:52:54;19.10;57.30
27940;DHT22;15275;51.716;14.324;2023-05-02T07:55:20;19.10;57.00
27940;DHT22;15275;51.716;14.324;2023-05-02T07:57:46;19.10;56.70
27940;DHT22;15275;51.716;14.324;2023-05-02T08:00:13;19.10;56.70
27940;DHT22;15275;51.716;14.324;2023-05-02T08:02:40;19.00;56.80
27940;DHT22;15275;51.716;14.324;2023-05-02T08:05:07;19.00;56.60
27940;DHT22;15275;51.716;14.324;2023-05-02T08:07:33;18.90;56.70
27940;DHT22;15275;51.716;14.324;2023-05-02T08:10:00;18.90;56.60
27940;DHT22;15275;51.716;14.324;2023-05-02T08:12:26;18.80;56.60
27940;DHT22;15275;51.716;14.324;2023-05-02T08:14:52;18.70;56.70
27940;DHT22;15275;51.716;14.324;2023-05-02T08:17:18;18.70;57.10
27940;DHT22;15275;51.716;14.324;2023-05-02T08:19:44;18.60;57.00
27940;DHT22;15275;51.716;14.324;2023-05-02T08:22:10;18.60;57.00
27940;DHT22;15275;51.716;14.324;2023-05-02T08:24:36;18.60;57.30
27940;DHT22;15275;51.716;14.324;2023-05-02T08:27:02;18.60;57.10
27940;DHT22;15275;51.716;14.324;2023-05-02T08:29:29;18.60;57.10
27940;DHT22;15275;51.716;14.324;2023-05-02T08:31:55;18.60;57.20
27940;DHT22;15275;51.716;14.324;2023-05-02T08:34:21;18.60;57.20
27940;DHT22;15275;51.716;14.324;2023-05-02T08:36:47;18.60;57.60
27940;DHT22;15275;51.716;14.324;2023-05-02T08:39:13;18.60;57.60
27940;DHT22;15275;51.716;14.324;2023-05-02T08:41:39;18.60;57.70
27940;DHT22;15275;51.716;14.324;2023-05-02T08:44:05;18.60;57.70
27940;DHT22;15275;51.716;14.324;2023-05-02T08:46:35;18.60;57.90
27940;DHT22;15275;51.716;14.324;2023-05-02T08:49:01;18.60;58.00
27940;DHT22;15275;51.716;14.324;2023-05-02T08:51:29;18.70;58.00
27940;DHT22;15275;51.716;14.324;2023-05-02T08:53:57;18.70;57.90
27940;DHT22;15275;51.716;14.324;2023-05-02T08:56:24;18.70;58.00
27940;DHT22;15275;51.716;14.324;2023-05-02T08:58:50;18.80;58.10
27940;DHT22;15275;51.716;14.324;2023-05-02T09:01:18;18.80;57.90
27940;DHT22;15275;51.716;14.324;2023-05-02T09:03:47;18.90;57.90
27940;DHT22;15275;51.716;14.324;2023-05-02T09:06:18;18.90;58.00
27940;DHT22;15275;51.716;14.324;2023-05-02T09:08:47;19.00;58.00
27940;DHT22;15275;51.716;14.324;2023-05-02T09:11:15;19.00;58.10
27940;DHT22;15275;51.716;14.324;2023-05-02T09:13:43;19.10;58.40
27940;DHT22;15275;51.716;14.324;2023-05-02T09:16:15;19.20;58.10
27940;DHT22;15275;51.716;14.324;2023-05-02T09:18:49;19.20;58.10
27940;DHT22;15275;51.716;14.324;2023-05-02T09:21:34;19.30;58.00
27940;DHT22;15275;51.716;14.324;2023-05-02T09:24:21;19.40;58.00
27940;DHT22;15275;51.716;14.324;2023-05-02T09:27:03;19.50;58.80
27940;DHT22;15275;51.716;14.324;2023-05-02T09:29:32;19.60;59.20
27940;DHT22;15275;51.716;14.324;2023-05-02T09:32:06;19.70;59.10
27940;DHT22;15275;51.716;14.324;2023-05-02T09:34:32;19.80;59.20
27940;DHT22;15275;51.716;14.324;2023-05-02T09:36:58;20.00;59.20
27940;DHT22;15275;51.716;14.324;2023-05-02T09:39:27;20.10;59.40
27940;DHT22;15275;51.716;14.324;2023-05-02T09:41:54;20.30;59.50
27940;DHT22;15275;51.716;14.324;2023-05-02T09:44:25;20.50;59.10
27940;DHT22;15275;51.716;14.324;2023-05-02T09:46:54;20.60;58.40
27940;DHT22;15275;51.716;14.324;2023-05-02T09:49:44;20.80;57.80
27940;DHT22;15275;51.716;14.324;2023-05-02T09:52:18;20.90;57.60
27940;DHT22;15275;51.716;14.324;2023-05-02T09:54:47;21.00;57.00
27940;DHT22;15275;51.716;14.324;2023-05-02T09:57:17;21.00;56.60
27940;DHT22;15275;51.716;14.324;2023-05-02T09:59:56;21.10;56.20
27940;DHT22;15275;51.716;14.324;2023-05-02T10:02:23;21.10;55.60
27940;DHT22;15275;51.716;14.324;2023-05-02T10:04:52;21.00;56.10
27940;DHT22;15275;51.716;14.324;2023-05-02T10:07:22;21.00;56.10
27940;DHT22;15275;51.716;14.324;2023-05-02T10:09:50;20.90;56.10
27940;DHT22;15275;51.716;14.324;2023-05-02T10:12:21;21.00;56.10
27940;DHT22;15275;51.716;14.324;2023-05-02T10:14:56;21.00;55.60
27940;DHT22;15275;51.716;14.324;2023-05-02T10:17:30;20.90;55.30
27940;DHT22;15275;51.716;14.324;2023-05-02T10:20:03;20.90;55.30
27940;DHT22;15275;51.716;14.324;2023-05-02T10:22:33;20.90;55.10
27940;DHT22;15275;51.716;14.324;2023-05-02T10:25:01;20.80;55.30
27940;DHT22;15275;51.716;14.324;2023-05-02T10:27:29;20.70;55.50
27940;DHT22;15275;51.716;14.324;2023-05-02T10:29:58;20.70;55.50
27940;DHT22;15275;51.716;14.324;2023-05-02T10:32:27;20.70;55.50
27940;DHT22;15275;51.716;14.324;2023-05-02T10:34:56;20.60;55.50
27940;DHT22;15275;51.716;14.324;2023-05-02T10:37:24;20.50;55.60
27940;DHT22;15275;51.716;14.324;2023-05-02T10:39:51;20.50;55.50
27940;DHT22;15275;51.716;14.324;2023-05-02T10:42:18;20.30;55.80
27940;DHT22;15275;51.716;14.324;2023-05-02T10:44:46;20.20;55.80
27940;DHT22;15275;51.716;14.324;2023-05-02T10:47:21;20.10;55.80
27940;DHT22;15275;51.716;14.324;2023-05-02T10:49:50;20.00;56.20
27940;DHT22;15275;51.716;14.324;2023-05-02T10:52:28;19.90;56.40
27940;DHT22;15275;51.716;14.324;2023-05-02T10:55:17;19.70;56.80
27940;DHT22;15275;51.716;14.324;2023-05-02T11:00:32;19.40;57.80
27940;DHT22;15275;51.716;14.324;2023-05-02T11:02:59;19.30;57.70
27940;DHT22;15275;51.716;14.324;2023-05-02T11:05:26;19.20;57.90
27940;DHT22;15275;51.716;14.324;2023-05-02T11:10:40;19.20;58.40
27940;DHT22;15275;51.716;14.324;2023-05-02T11:13:06;19.20;58.40
27940;DHT22;15275;51.716;14.324;2023-05-02T11:18:02;19.10;58.70
27940;DHT22;15275;51.716;14.324;2023-05-02T11:20:33;19.20;58.80
27940;DHT22;15275;51.716;14.324;2023-05-02T11:23:20;19.20;58.90
27940;DHT22;15275;51.716;14.324;2023-05-02T11:25:52;19.20;59.40
27940;DHT22;15275;51.716;14.324;2023-05-02T11:28:39;19.30;59.20
27940;DHT22;15275;51.716;14.324;2023-05-02T11:31:51;19.40;59.20
27940;DHT22;15275;51.716;14.324;2023-05-02T11:34:22;19.50;59.10
27940;DHT22;15275;51.716;14.324;2023-05-02T11:36:48;19.60;58.80
27940;DHT22;15275;51.716;14.324;2023-05-02T11:39:20;19.70;58.50
27940;DHT22;15275;51.716;14.324;2023-05-02T11:41:47;19.70;58.30
27940;DHT22;15275;51.716;14.324;2023-05-02T11:44:15;19.70;58.20
27940;DHT22;15275;51.716;14.324;2023-05-02T11:46:41;19.80;58.10
27940;DHT22;15275;51.716;14.324;2023-05-02T11:49:07;19.80;57.90
27940;DHT22;15275;51.716;14.324;2023-05-02T11:51:34;19.90;58.00
27940;DHT22;15275;51.716;14.324;2023-05-02T11:54:00;19.90;57.70
27940;DHT22;15275;51.716;14.324;2023-05-02T11:56:26;19.90;57.70
27940;DHT22;15275;51.716;14.324;2023-05-02T11:58:59;19.90;57.80
27940;DHT22;15275;51.716;14.324;2023-05-02T12:01:27;20.00;58.00
27940;DHT22;15275;51.716;14.324;2023-05-02T12:04:05;20.00;58.20
27940;DHT22;15275;51.716;14.324;2023-05-02T12:06:32;20.20;58.00
27940;DHT22;15275;51.716;14.324;2023-05-02T12:09:09;20.30;57.90
27940;DHT22;15275;51.716;14.324;2023-05-02T12:11:38;20.50;57.50
27940;DHT22;15275;51.716;14.324;2023-05-02T12:14:04;20.60;57.80
27940;DHT22;15275;51.716;14.324;2023-05-02T12:16:31;20.70;57.60
27940;DHT22;15275;51.716;14.324;2023-05-02T12:18:57;20.90;57.30
27940;DHT22;15275;51.716;14.324;2023-05-02T12:21:27;21.00;56.80
27940;DHT22;15275;51.716;14.324;2023-05-02T12:23:54;21.10;56.30
27940;DHT22;15275;51.716;14.324;2023-05-02T12:26:25;21.20;56.20
27940;DHT22;15275;51.716;14.324;2023-05-02T12:28:55;21.20;56.10
27940;DHT22;15275;51.716;14.324;2023-05-02T12:31:23;21.20;56.10
27940;DHT22;15275;51.716;14.324;2023-05-02T12:33:50;21.30;55.90
27940;DHT22;15275;51.716;14.324;2023-05-02T12:36:17;21.30;55.70
27940;DHT22;15275;51.716;14.324;2023-05-02T12:38:51;21.30;55.50
27940;DHT22;15275;51.716;14.324;2023-05-02T12:41:33;21.30;55.20
27940;DHT22;15275;51.716;14.324;2023-05-02T12:43:59;21.10;54.90
27940;DHT22;15275;51.716;14.324;2023-05-02T12:46:25;21.00;55.00
27940;DHT22;15275;51.716;14.324;2023-05-02T12:49:06;20.90;55.00
27940;DHT22;15275;51.716;14.324;2023-05-02T12:51:33;20.80;54.80
27940;DHT22;15275;51.716;14.324;2023-05-02T12:54:01;20.70;55.40
27940;DHT22;15275;51.716;14.324;2023-05-02T12:56:27;20.70;55.80
27940;DHT22;15275;51.716;14.324;2023-05-02T12:58:56;20.70;55.90
27940;DHT22;15275;51.716;14.324;2023-05-02T13:01:29;20.70;56.00
27940;DHT22;15275;51.716;14.324;2023-05-02T13:03:55;20.80;55.80
27940;DHT22;15275;51.716;14.324;2023-05-02T13:06:21;20.90;55.50
27940;DHT22;15275;51.716;14.324;2023-05-02T13:08:47;20.90;55.00
27940;DHT22;15275;51.716;14.324;2023-05-02T13:11:13;20.90;55.10
27940;DHT22;15275;51.716;14.324;2023-05-02T13:13:40;20.90;55.10
27940;DHT22;15275;51.716;14.324;2023-05-02T13:16:06;20.90;54.70
27940;DHT22;15275;51.716;14.324;2023-05-02T13:18:32;20.90;54.50
27940;DHT22;15275;51.716;14.324;2023-05-02T13:20:58;20.90;54.50
27940;DHT22;15275;51.716;14.324;2023-05-02T13:23:24;20.90;54.60
27940;DHT22;15275;51.716;14.324;2023-05-02T13:25:49;20.80;54.60
27940;DHT22;15275;51.716;14.324;2023-05-02T13:28:15;20.80;54.80
27940;DHT22;15275;51.716;14.324;2023-05-02T13:30:41;20.70;54.80
27940;DHT22;15275;51.716;14.324;2023-05-02T13:33:07;20.70;54.70
27940;DHT22;15275;51.716;14.324;2023-05-02T13:35:33;20.60;54.70
27940;DHT22;15275;51.716;14.324;2023-05-02T13:37:59;20.60;54.60
27940;DHT22;15275;51.716;14.324;2023-05-02T13:40:24;20.50;54.60
27940;DHT22;15275;51.716;14.324;2023-05-02T13:42:50;20.40;54.50
27940;DHT22;15275;51.716;14.324;2023-05-02T13:45:16;20.30;54.50
27940;DHT22;15275;51.716;14.324;2023-05-02T13:47:42;20.30;54.60
27940;DHT22;15275;51.716;14.324;2023-05-02T13:50:08;20.20;54.70
27940;DHT22;15275;51.716;14.324;2023-05-02T13:52:34;20.10;55.00
27940;DHT22;15275;51.716;14.324;2023-05-02T13:55:00;20.10;55.20
27940;DHT22;15275;51.716;14.324;2023-05-02T13:57:25;20.00;55.40
27940;DHT22;15275;51.716;14.324;2023-05-02T13:59:51;19.90;55.70
27940;DHT22;15275;51.716;14.324;2023-05-02T14:02:17;19.90;55.80
27940;DHT22;15275;51.716;14.324;2023-05-02T14:04:43;19.80;56.00
27940;DHT22;15275;51.716;14.324;2023-05-02T14:07:09;19.80;56.10
27940;DHT22;15275;51.716;14.324;2023-05-02T14:09:35;19.70;56.00
27940;DHT22;15275;51.716;14.324;2023-05-02T14:12:01;19.60;56.00
27940;DHT22;15275;51.716;14.324;2023-05-02T14:14:27;19.60;56.00
27940;DHT22;15275;51.716;14.324;2023-05-02T14:16:53;19.50;56.20
27940;DHT22;15275;51.716;14.324;2023-05-02T14:19:18;19.50;56.30
27940;DHT22;15275;51.716;14.324;2023-05-02T14:21:44;19.50;56.50
27940;DHT22;15275;51.716;14.324;2023-05-02T14:24:10;19.40;56.60
27940;DHT22;15275;51.716;14.324;2023-05-02T14:26:37;19.40;56.80
27940;DHT22;15275;51.716;14.324;2023-05-02T14:29:03;19.50;57.00
27940;DHT22;15275;51.716;14.324;2023-05-02T14:31:28;19.50;57.10
27940;DHT22;15275;51.716;14.324;2023-05-02T14:33:55;19.50;57.10
27940;DHT22;15275;51.716;14.324;2023-05-02T14:36:21;19.60;57.30
27940;DHT22;15275;51.716;14.324;2023-05-02T14:38:47;19.60;57.60
27940;DHT22;15275;51.716;14.324;2023-05-02T14:41:12;19.60;57.80
27940;DHT22;15275;51.716;14.324;2023-05-02T14:43:38;19.60;57.90
27940;DHT22;15275;51.716;14.324;2023-05-02T14:46:04;19.60;57.90
27940;DHT22;15275;51.716;14.324;2023-05-02T14:48:30;19.60;58.00
27940;DHT22;15275;51.716;14.324;2023-05-02T14:50:56;19.60;58.00
27940;DHT22;15275;51.716;14.324;2023-05-02T14:53:23;19.60;58.00
27940;DHT22;15275;51.716;14.324;2023-05-02T14:55:49;19.50;57.90
27940;DHT22;15275;51.716;14.324;2023-05-02T14:58:15;19.50;57.90
27940;DHT22;15275;51.716;14.324;2023-05-02T15:00:45;19.40;57.90
27940;DHT22;15275;51.716;14.324;2023-05-02T15:03:11;19.30;58.10
27940;DHT22;15275;51.716;14.324;2023-05-02T15:05:38;19.30;58.10
27940;DHT22;15275;51.716;14.324;2023-05-02T15:08:04;19.20;58.10
27940;DHT22;15275;51.716;14.324;2023-05-02T15:10:30;19.20;58.20
27940;DHT22;15275;51.716;14.324;2023-05-02T15:12:58;19.10;58.20
27940;DHT22;15275;51.716;14.324;2023-05-02T15:15:25;19.10;58.40
27940;DHT22;15275;51.716;14.324;2023-05-02T15:17:51;19.10;58.80
27940;DHT22;15275;51.716;14.324;2023-05-02T15:20:17;19.10;58.80
27940;DHT22;15275;51.716;14.324;2023-05-02T15:22:43;19.10;58.90
27940;DHT22;15275;51.716;14.324;2023-05-02T15:25:09;19.10;58.70
27940;DHT22;15275;51.716;14.324;2023-05-02T15:27:35;19.10;58.40
27940;DHT22;15275;51.716;14.324;2023-05-02T15:30:01;19.20;58.10
27940;DHT22;15275;51.716;14.324;2023-05-02T15:32:28;19.20;58.00
27940;DHT22;15275;51.716;14.324;2023-05-02T15:34:54;19.20;57.90
27940;DHT22;15275;51.716;14.324;2023-05-02T15:37:20;19.20;57.70
27940;DHT22;15275;51.716;14.324;2023-05-02T15:39:46;19.10;57.60
27940;DHT22;15275;51.716;14.324;2023-05-02T15:42:12;19.10;57.50
27940;DHT22;15275;51.716;14.324;2023-05-02T15:44:37;19.10;57.60
27940;DHT22;15275;51.716;14.324;2023-05-02T15:47:04;19.10;57.80
27940;DHT22;15275;51.716;14.324;2023-05-02T15:49:30;19.00;57.40
27940;DHT22;15275;51.716;14.324;2023-05-02T15:52:01;18.90;57.40